createdAt,value
2017-07-24T00:00:42.337Z,97892.63
2017-07-24T00:03:10.951Z,97890.98
2017-07-24T00:05:39.281Z,97890.75
2017-07-24T00:08:07.623Z,97885.19
2017-07-24T00:10:35.960Z,97889.85
2017-07-24T00:13:04.291Z,97883.39
2017-07-24T00:15:32.636Z,97885.50
2017-07-24T00:18:00.982Z,97885.25
2017-07-24T00:20:29.333Z,97883.11
2017-07-24T00:22:57.686Z,97883.39
2017-07-24T00:25:26.034Z,97880.95
2017-07-24T00:27:54.648Z,97877.84
2017-07-24T00:30:22.980Z,97878.29
2017-07-24T00:32:51.317Z,97876.05
2017-07-24T00:35:19.672Z,97872.83
2017-07-24T00:37:48.009Z,97867.80
2017-07-24T00:40:16.605Z,97864.09
2017-07-24T00:42:44.923Z,97862.89
2017-07-24T00:45:13.257Z,97861.22
2017-07-24T00:47:41.622Z,97861.05
2017-07-24T00:50:09.967Z,97857.00
2017-07-24T00:52:38.319Z,97856.70
2017-07-24T00:55:06.678Z,97858.34
2017-07-24T00:57:35.016Z,97862.41
2017-07-24T01:00:03.742Z,97854.27
2017-07-24T01:02:32.059Z,97860.90
2017-07-24T01:05:00.425Z,97866.60
2017-07-24T01:07:28.785Z,97860.74
2017-07-24T01:09:57.120Z,97857.01
2017-07-24T01:12:25.487Z,97858.97
2017-07-24T01:14:53.841Z,97854.43
2017-07-24T01:17:22.187Z,97853.31
2017-07-24T01:19:50.526Z,97858.77
2017-07-24T01:22:18.869Z,97847.72
2017-07-24T01:24:47.201Z,97845.89
2017-07-24T01:27:15.559Z,97837.03
2017-07-24T01:29:43.924Z,97831.44
2017-07-24T01:32:12.242Z,97831.89
2017-07-24T01:34:40.866Z,97820.75
2017-07-24T01:37:09.992Z,97808.77
2017-07-24T01:39:38.314Z,97799.08
2017-07-24T01:42:06.665Z,97800.86
2017-07-24T01:44:35.001Z,97792.17
2017-07-24T01:47:03.600Z,97775.45
2017-07-24T01:49:32.059Z,97771.88
2017-07-24T01:52:00.402Z,97759.55
2017-07-24T01:54:28.763Z,97743.31
2017-07-24T01:56:57.101Z,97745.56
2017-07-24T01:59:25.688Z,97744.08
2017-07-24T02:01:54.142Z,97738.69
2017-07-24T02:04:22.490Z,97745.50
2017-07-24T02:06:50.854Z,97743.80
2017-07-24T02:09:19.195Z,97737.91
2017-07-24T02:11:47.819Z,97726.62
2017-07-24T02:14:16.140Z,97719.06
2017-07-24T02:16:44.465Z,97706.91
2017-07-24T02:19:13.560Z,97701.17
2017-07-24T02:21:41.889Z,97705.08
2017-07-24T02:24:10.497Z,97697.45
2017-07-24T02:26:38.837Z,97703.77
2017-07-24T02:29:07.167Z,97692.53
2017-07-24T02:31:35.507Z,97675.79
2017-07-24T02:34:03.827Z,97678.77
2017-07-24T02:36:32.196Z,97671.77
2017-07-24T02:39:00.564Z,97664.31
2017-07-24T02:41:28.919Z,97660.64
2017-07-24T02:43:57.277Z,97662.77
2017-07-24T02:46:25.657Z,97666.25
2017-07-24T02:48:54.035Z,97663.51
2017-07-24T02:51:22.390Z,97666.55
2017-07-24T02:53:50.727Z,97662.31
2017-07-24T02:56:19.067Z,97657.45
2017-07-24T02:58:47.392Z,97650.44
2017-07-24T03:01:15.754Z,97651.59
2017-07-24T03:03:44.105Z,97649.13
2017-07-24T03:06:12.423Z,97646.66
2017-07-24T03:08:40.768Z,97637.67
2017-07-24T03:11:09.098Z,97637.03
2017-07-24T03:13:37.716Z,97636.34
2017-07-24T03:16:06.060Z,97632.77
2017-07-24T03:18:34.394Z,97632.85
2017-07-24T03:21:03.411Z,97627.84
2017-07-24T03:23:31.769Z,97612.44
2017-07-24T03:26:00.391Z,97611.34
2017-07-24T03:28:28.715Z,97604.30
2017-07-24T03:30:57.046Z,97593.58
2017-07-24T03:33:25.394Z,97590.77
2017-07-24T03:35:53.736Z,97589.28
2017-07-24T03:38:22.352Z,97582.54
2017-07-24T03:40:50.701Z,97582.12
2017-07-24T03:43:19.747Z,97576.39
2017-07-24T03:45:48.097Z,97571.08
2017-07-24T03:48:16.416Z,97571.23
2017-07-24T03:50:44.779Z,97564.59
2017-07-24T03:53:13.142Z,97569.13
2017-07-24T03:55:41.474Z,97565.09
2017-07-24T03:58:09.807Z,97564.42
2017-07-24T04:00:38.155Z,97567.20
2017-07-24T04:03:06.505Z,97557.59
2017-07-24T04:05:34.835Z,97553.81
2017-07-24T04:08:03.194Z,97551.50
2017-07-24T04:10:31.627Z,97549.65
2017-07-24T04:12:59.955Z,97554.10
2017-07-24T04:15:28.573Z,97550.07
2017-07-24T04:17:56.894Z,97546.02
2017-07-24T04:20:25.238Z,97539.80
2017-07-24T04:22:53.593Z,97528.39
2017-07-24T04:25:21.941Z,97518.80
2017-07-24T04:27:50.306Z,97516.81
2017-07-24T04:30:18.675Z,97523.00
2017-07-24T04:32:47.016Z,97531.34
2017-07-24T04:35:15.358Z,97527.42
2017-07-24T04:37:43.788Z,97523.78
2017-07-24T04:40:12.142Z,97525.34
2017-07-24T04:42:40.521Z,97526.83
2017-07-24T04:45:08.886Z,97526.70
2017-07-24T04:47:37.226Z,97531.88
2017-07-24T04:50:05.556Z,97536.12
2017-07-24T04:52:33.900Z,97535.36
2017-07-24T04:55:02.241Z,97531.37
2017-07-24T04:57:30.585Z,97526.27
2017-07-24T04:59:58.925Z,97512.81
2017-07-24T05:02:27.243Z,97502.08
2017-07-24T05:04:55.854Z,97507.17
2017-07-24T05:07:24.170Z,97513.77
2017-07-24T05:09:52.501Z,97518.25
2017-07-24T05:12:20.866Z,97523.21
2017-07-24T05:14:49.197Z,97512.27
2017-07-24T05:17:17.563Z,97507.31
2017-07-24T05:19:45.917Z,97502.72
2017-07-24T05:22:14.254Z,97524.08
2017-07-24T05:24:43.325Z,97516.36
2017-07-24T05:27:11.673Z,97508.09
2017-07-24T05:29:40.287Z,97509.14
2017-07-24T05:32:08.609Z,97507.70
2017-07-24T05:34:36.951Z,97515.48
2017-07-24T05:37:05.314Z,97514.23
2017-07-24T05:39:33.646Z,97505.94
2017-07-24T05:42:02.257Z,97504.55
2017-07-24T05:44:30.595Z,97503.13
2017-07-24T05:46:58.935Z,97505.66
2017-07-24T05:49:27.290Z,97500.84
2017-07-24T05:51:55.625Z,97495.63
2017-07-24T05:54:24.219Z,97499.69
2017-07-24T05:56:52.544Z,97495.81
2017-07-24T05:59:20.884Z,97496.09
2017-07-24T06:01:49.246Z,97501.80
2017-07-24T06:04:17.579Z,97498.19
2017-07-24T06:06:46.227Z,97494.71
2017-07-24T06:09:14.564Z,97491.45
2017-07-24T06:11:42.919Z,97490.06
2017-07-24T06:14:11.303Z,97485.49
2017-07-24T06:16:39.644Z,97474.38
2017-07-24T06:19:08.243Z,97469.16
2017-07-24T06:21:36.563Z,97462.45
2017-07-24T06:24:04.905Z,97457.52
2017-07-24T06:26:33.266Z,97462.23
2017-07-24T06:29:01.615Z,97454.75
2017-07-24T06:31:29.987Z,97456.31
2017-07-24T06:33:58.331Z,97442.46
2017-07-24T06:36:26.648Z,97459.08
2017-07-24T06:38:54.982Z,97474.05
2017-07-24T06:41:23.297Z,97486.69
2017-07-24T06:43:51.671Z,97501.85
2017-07-24T06:46:20.002Z,97504.22
2017-07-24T06:48:48.330Z,97515.38
2017-07-24T06:51:16.975Z,97515.08
2017-07-24T06:53:45.301Z,97514.55
2017-07-24T06:56:13.665Z,97515.74
2017-07-24T06:58:42.009Z,97508.75
2017-07-24T07:01:10.337Z,97509.37
2017-07-24T07:03:38.706Z,97512.72
2017-07-24T07:06:07.974Z,97523.91
2017-07-24T07:08:36.320Z,97523.52
2017-07-24T07:11:04.687Z,97534.19
2017-07-24T07:13:33.030Z,97543.58
2017-07-24T07:16:01.713Z,97539.42
2017-07-24T07:18:30.046Z,97545.20
2017-07-24T07:20:58.400Z,97543.20
2017-07-24T07:23:26.754Z,97551.67
2017-07-24T07:25:55.134Z,97553.16
2017-07-24T07:28:23.788Z,97561.84
2017-07-24T07:30:52.128Z,97560.94
2017-07-24T07:33:20.476Z,97556.36
2017-07-24T07:35:48.837Z,97573.58
2017-07-24T07:38:17.146Z,97572.59
2017-07-24T07:40:45.755Z,97569.80
2017-07-24T07:43:14.103Z,97573.13
2017-07-24T07:45:42.467Z,97571.02
2017-07-24T07:48:10.820Z,97576.51
2017-07-24T07:50:39.156Z,97569.89
2017-07-24T07:53:07.782Z,97572.50
2017-07-24T07:55:36.131Z,97570.53
2017-07-24T07:58:04.481Z,97572.99
2017-07-24T08:00:32.830Z,97579.95
2017-07-24T08:03:01.161Z,97575.31
2017-07-24T08:05:30.429Z,97572.95
2017-07-24T08:07:58.768Z,97575.85
2017-07-24T08:10:27.110Z,97563.95
2017-07-24T08:12:55.451Z,97568.38
2017-07-24T08:15:23.793Z,97570.34
2017-07-24T08:17:52.398Z,97575.03
2017-07-24T08:20:21.325Z,97573.16
2017-07-24T08:22:49.663Z,97571.25
2017-07-24T08:25:18.015Z,97570.12
2017-07-24T08:27:46.350Z,97574.80
2017-07-24T08:30:14.990Z,97579.83
2017-07-24T08:32:43.384Z,97569.50
2017-07-24T08:35:11.735Z,97578.47
2017-07-24T08:37:41.174Z,97579.69
2017-07-24T08:40:09.529Z,97590.98
2017-07-24T08:42:37.877Z,97585.80
2017-07-24T08:45:06.509Z,97585.70
2017-07-24T08:47:34.866Z,97587.88
2017-07-24T08:50:03.278Z,97586.92
2017-07-24T08:52:31.682Z,97587.44
2017-07-24T08:55:00.020Z,97591.87
2017-07-24T08:57:28.361Z,97593.30
2017-07-24T08:59:56.720Z,97606.55
2017-07-24T09:02:25.069Z,97587.92
2017-07-24T09:04:53.435Z,97595.59
2017-07-24T09:07:21.814Z,97585.32
2017-07-24T09:09:50.163Z,97580.66
2017-07-24T09:12:18.512Z,97584.84
2017-07-24T09:14:46.871Z,97579.62
2017-07-24T09:17:15.528Z,97579.83
2017-07-24T09:19:43.872Z,97583.88
2017-07-24T09:22:12.820Z,97579.42
2017-07-24T09:24:41.182Z,97579.73
2017-07-24T09:27:09.510Z,97577.98
2017-07-24T09:29:37.871Z,97579.13
2017-07-24T09:32:06.283Z,97579.59
2017-07-24T09:34:34.615Z,97582.58
2017-07-24T09:37:02.981Z,97586.06
2017-07-24T09:39:31.317Z,97583.98
2017-07-24T09:41:59.939Z,97583.50
2017-07-24T09:44:28.281Z,97589.64
2017-07-24T09:46:56.651Z,97585.89
2017-07-24T09:49:25.012Z,97593.24
2017-07-24T09:51:53.347Z,97587.41
2017-07-24T09:54:21.748Z,97585.72
2017-07-24T09:56:50.119Z,97587.03
2017-07-24T09:59:18.461Z,97593.83
2017-07-24T10:01:46.811Z,97596.88
2017-07-24T10:04:15.138Z,97592.59
2017-07-24T10:06:43.724Z,97590.06
2017-07-24T10:09:12.049Z,97597.36
2017-07-24T10:11:40.363Z,97594.50
2017-07-24T10:14:08.982Z,97593.08
2017-07-24T10:16:37.349Z,97587.92
2017-07-24T10:19:05.703Z,97593.00
2017-07-24T10:21:34.084Z,97593.33
2017-07-24T10:24:02.414Z,97587.42
2017-07-24T10:26:31.024Z,97583.81
2017-07-24T10:28:59.358Z,97580.94
2017-07-24T10:31:27.679Z,97580.25
2017-07-24T10:33:56.305Z,97575.03
2017-07-24T10:36:24.640Z,97569.71
2017-07-24T10:38:52.990Z,97562.48
2017-07-24T10:41:21.451Z,97568.39
2017-07-24T10:43:49.789Z,97563.53
2017-07-24T10:46:18.400Z,97566.68
2017-07-24T10:48:46.756Z,97570.66
2017-07-24T10:51:15.082Z,97567.06
2017-07-24T10:53:43.425Z,97575.13
2017-07-24T10:56:11.773Z,97564.55
2017-07-24T10:58:40.368Z,97568.61
2017-07-24T11:01:08.706Z,97563.51
2017-07-24T11:03:37.047Z,97558.38
2017-07-24T11:06:05.395Z,97565.19
2017-07-24T11:08:33.731Z,97563.97
2017-07-24T11:11:02.356Z,97565.42
2017-07-24T11:13:30.702Z,97562.48
2017-07-24T11:15:59.046Z,97572.99
2017-07-24T11:18:27.706Z,97573.22
2017-07-24T11:20:56.028Z,97576.25
2017-07-24T11:23:24.357Z,97581.06
2017-07-24T11:25:52.706Z,97585.00
2017-07-24T11:28:21.024Z,97588.41
2017-07-24T11:30:49.375Z,97590.63
2017-07-24T11:33:17.732Z,97610.61
2017-07-24T11:35:46.055Z,97624.20
2017-07-24T11:38:14.655Z,97618.08
2017-07-24T11:40:42.991Z,97617.80
2017-07-24T11:43:11.309Z,97623.73
2017-07-24T11:45:39.662Z,97625.39
2017-07-24T11:48:07.983Z,97625.67
2017-07-24T11:50:37.473Z,97622.35
2017-07-24T11:53:05.803Z,97623.03
2017-07-24T11:55:34.149Z,97618.40
2017-07-24T11:58:02.495Z,97616.97
2017-07-24T12:00:30.826Z,97612.19
2017-07-24T12:02:59.449Z,97605.23
2017-07-24T12:05:27.793Z,97604.20
2017-07-24T12:07:56.251Z,97602.13
2017-07-24T12:10:25.094Z,97606.59
2017-07-24T12:12:53.996Z,97603.97
2017-07-24T12:15:25.434Z,97611.23
2017-07-24T12:17:57.194Z,97611.20
2017-07-24T12:20:27.992Z,97621.88
2017-07-24T12:22:56.489Z,97613.86
2017-07-24T12:25:24.851Z,97605.47
2017-07-24T12:27:53.205Z,97606.81
2017-07-24T12:30:21.533Z,97612.70
2017-07-24T12:32:50.135Z,97609.05
2017-07-24T12:35:18.459Z,97610.05
2017-07-24T12:37:46.782Z,97610.91
2017-07-24T12:40:15.546Z,97609.39
2017-07-24T12:42:43.877Z,97602.34
2017-07-24T12:45:12.195Z,97600.98
2017-07-24T12:47:41.326Z,97595.81
2017-07-24T12:50:09.668Z,97593.28
2017-07-24T12:52:38.379Z,97588.48
2017-07-24T12:55:06.729Z,97581.88
2017-07-24T12:57:35.085Z,97583.34
2017-07-24T13:00:03.466Z,97581.58
2017-07-24T13:02:31.817Z,97571.18
2017-07-24T13:05:00.584Z,97578.13
2017-07-24T13:07:28.925Z,97574.58
2017-07-24T13:09:57.281Z,97578.17
2017-07-24T13:12:25.635Z,97578.38
2017-07-24T13:14:53.982Z,97576.05
2017-07-24T13:17:23.430Z,97578.77
2017-07-24T13:19:51.779Z,97582.19
2017-07-24T13:22:20.125Z,97605.91
2017-07-24T13:24:48.481Z,97639.13
2017-07-24T13:27:16.824Z,97631.25
2017-07-24T13:29:45.612Z,97654.67
2017-07-24T13:32:13.994Z,97644.25
2017-07-24T13:34:43.347Z,97640.80
2017-07-24T13:37:11.700Z,97647.47
2017-07-24T13:39:40.028Z,97661.41
2017-07-24T13:42:08.647Z,97664.97
2017-07-24T13:44:36.976Z,97659.25
2017-07-24T13:47:05.318Z,97658.27
2017-07-24T13:49:33.676Z,97662.02
2017-07-24T13:52:02.022Z,97670.25
2017-07-24T13:54:30.637Z,97671.56
2017-07-24T13:56:58.989Z,97668.77
2017-07-24T13:59:27.319Z,97669.95
2017-07-24T14:01:55.946Z,97674.72
2017-07-24T14:04:24.314Z,97677.66
2017-07-24T14:06:52.714Z,97676.63
2017-07-24T14:09:21.082Z,97668.94
2017-07-24T14:11:49.770Z,97670.69
2017-07-24T14:14:18.547Z,97674.95
2017-07-24T14:16:46.935Z,97672.64
2017-07-24T14:19:15.299Z,97672.83
2017-07-24T14:21:43.631Z,97677.92
2017-07-24T14:24:11.956Z,97673.47
2017-07-24T14:26:40.574Z,97676.11
2017-07-24T14:29:08.925Z,97664.12
2017-07-24T14:31:37.268Z,97658.05
2017-07-24T14:34:05.620Z,97660.78
2017-07-24T14:36:33.979Z,97644.59
2017-07-24T14:39:02.634Z,97643.35
2017-07-24T14:41:31.749Z,97646.67
2017-07-24T14:44:00.106Z,97641.79
2017-07-24T14:46:28.448Z,97639.23
2017-07-24T14:48:56.799Z,97630.58
2017-07-24T14:51:25.442Z,97630.19
2017-07-24T14:53:53.787Z,97625.14
2017-07-24T14:56:22.118Z,97614.34
2017-07-24T14:58:50.508Z,97618.49
2017-07-24T15:01:18.823Z,97620.28
2017-07-24T15:03:47.239Z,97629.86
2017-07-24T15:06:15.609Z,97625.59
2017-07-24T15:08:43.992Z,97629.81
2017-07-24T15:11:12.356Z,97622.66
2017-07-24T15:13:40.736Z,97625.83
2017-07-24T15:16:09.187Z,97616.15
2017-07-24T15:18:37.536Z,97621.16
2017-07-24T15:21:05.887Z,97625.63
2017-07-24T15:23:34.259Z,97615.02
2017-07-24T15:26:02.595Z,97608.43
2017-07-24T15:28:31.202Z,97621.88
2017-07-24T15:30:59.557Z,97618.27
2017-07-24T15:33:28.563Z,97628.70
2017-07-24T15:35:56.931Z,97635.21
2017-07-24T15:38:25.266Z,97637.99
2017-07-24T15:40:53.851Z,97631.37
2017-07-24T15:43:22.208Z,97636.40
2017-07-24T15:45:50.571Z,97643.05
2017-07-24T15:48:18.922Z,97644.86
2017-07-24T15:50:47.274Z,97655.13
2017-07-24T15:53:15.656Z,97663.67
2017-07-24T15:55:44.013Z,97659.24
2017-07-24T15:58:12.683Z,97673.54
2017-07-24T16:00:41.686Z,97674.19
2017-07-24T16:03:10.030Z,97679.42
2017-07-24T16:05:38.399Z,97678.23
2017-07-24T16:08:06.737Z,97671.83
2017-07-24T16:10:35.337Z,97678.20
2017-07-24T16:13:03.668Z,97678.23
2017-07-24T16:15:31.995Z,97680.21
2017-07-24T16:18:01.700Z,97695.27
2017-07-24T16:20:30.042Z,97694.80
2017-07-24T16:22:58.401Z,97700.52
2017-07-24T16:25:26.762Z,97700.22
2017-07-24T16:27:55.098Z,97692.11
2017-07-24T16:30:23.454Z,97688.44
2017-07-24T16:32:51.806Z,97689.69
2017-07-24T16:35:20.415Z,97695.76
2017-07-24T16:37:48.760Z,97686.63
2017-07-24T16:40:17.100Z,97679.89
2017-07-24T16:42:45.471Z,97683.98
2017-07-24T16:45:13.815Z,97680.86
2017-07-24T16:47:42.436Z,97674.72
2017-07-24T16:50:10.780Z,97668.22
2017-07-24T16:52:39.125Z,97671.38
2017-07-24T16:55:07.507Z,97665.95
2017-07-24T16:57:35.828Z,97671.39
2017-07-24T17:00:04.448Z,97667.34
2017-07-24T17:02:32.780Z,97655.45
2017-07-24T17:05:01.124Z,97656.89
2017-07-24T17:07:29.710Z,97657.85
2017-07-24T17:09:58.055Z,97664.59
2017-07-24T17:12:26.400Z,97669.37
2017-07-24T17:14:54.735Z,97674.74
2017-07-24T17:17:23.056Z,97670.17
2017-07-24T17:19:51.706Z,97675.02
2017-07-24T17:22:20.068Z,97682.59
2017-07-24T17:24:48.713Z,97682.58
2017-07-24T17:27:17.071Z,97690.00
2017-07-24T17:29:45.440Z,97688.78
2017-07-24T17:32:13.821Z,97691.94
2017-07-24T17:34:42.159Z,97701.61
2017-07-24T17:37:10.511Z,97702.60
2017-07-24T17:39:38.872Z,97705.18
2017-07-24T17:42:07.214Z,97705.64
2017-07-24T17:44:35.653Z,97705.47
2017-07-24T17:47:04.022Z,97708.78
2017-07-24T17:49:32.362Z,97700.86
2017-07-24T17:52:00.723Z,97701.85
2017-07-24T17:54:29.906Z,97704.37
2017-07-24T17:56:58.265Z,97704.73
2017-07-24T17:59:26.627Z,97695.90
2017-07-24T18:01:54.968Z,97692.57
2017-07-24T18:04:23.320Z,97689.42
2017-07-24T18:06:55.475Z,97695.45
2017-07-24T18:09:25.306Z,97687.23
2017-07-24T18:11:53.937Z,97688.86
2017-07-24T18:14:22.325Z,97694.69
2017-07-24T18:16:50.653Z,97698.30
2017-07-24T18:19:25.981Z,97703.30
2017-07-24T18:21:56.406Z,97709.27
2017-07-24T18:24:24.754Z,97703.20
2017-07-24T18:26:53.713Z,97703.97
2017-07-24T18:29:22.060Z,97706.69
2017-07-24T18:31:50.435Z,97704.34
2017-07-24T18:34:18.795Z,97712.16
2017-07-24T18:36:47.133Z,97710.34
2017-07-24T18:39:15.556Z,97707.55
2017-07-24T18:41:43.936Z,97718.14
2017-07-24T18:44:12.571Z,97718.27
2017-07-24T18:46:40.924Z,97724.07
2017-07-24T18:49:09.265Z,97729.86
2017-07-24T18:51:37.649Z,97727.20
2017-07-24T18:54:06.012Z,97726.39
2017-07-24T18:56:34.625Z,97731.00
2017-07-24T18:59:02.962Z,97736.23
2017-07-24T19:01:31.313Z,97742.50
2017-07-24T19:03:59.672Z,97742.20
2017-07-24T19:06:28.010Z,97744.64
2017-07-24T19:08:56.385Z,97748.65
2017-07-24T19:11:24.750Z,97753.05
2017-07-24T19:13:53.094Z,97755.34
2017-07-24T19:16:21.722Z,97760.20
2017-07-24T19:18:50.056Z,97755.00
2017-07-24T19:21:18.397Z,97760.92
2017-07-24T19:23:46.778Z,97760.22
2017-07-24T19:26:15.124Z,97759.25
2017-07-24T19:28:43.486Z,97759.39
2017-07-24T19:31:11.843Z,97767.40
2017-07-24T19:33:40.187Z,97764.44
2017-07-24T19:36:08.803Z,97765.77
2017-07-24T19:38:38.052Z,97764.34
2017-07-24T19:41:06.391Z,97764.53
2017-07-24T19:43:34.754Z,97765.39
2017-07-24T19:46:03.717Z,97764.66
2017-07-24T19:48:32.333Z,97761.73
2017-07-24T19:51:00.674Z,97758.19
2017-07-24T19:53:28.995Z,97761.91
2017-07-24T19:55:57.625Z,97767.89
2017-07-24T19:58:25.985Z,97765.17
2017-07-24T20:00:54.316Z,97768.83
2017-07-24T20:03:22.928Z,97764.12
2017-07-24T20:05:51.253Z,97765.48
2017-07-24T20:08:19.589Z,97768.55
2017-07-24T20:10:47.965Z,97769.91
2017-07-24T20:13:16.289Z,97766.36
2017-07-24T20:15:44.960Z,97769.29
2017-07-24T20:18:13.286Z,97763.38
2017-07-24T20:20:41.637Z,97760.08
2017-07-24T20:23:09.983Z,97768.77
2017-07-24T20:25:38.346Z,97762.30
2017-07-24T20:28:06.978Z,97765.61
2017-07-24T20:30:36.051Z,97766.47
2017-07-24T20:33:04.380Z,97765.73
2017-07-24T20:35:32.760Z,97767.92
2017-07-24T20:38:01.168Z,97763.85
2017-07-24T20:40:29.627Z,97769.08
2017-07-24T20:42:58.196Z,97762.09
2017-07-24T20:45:26.665Z,97754.78
2017-07-24T20:47:55.317Z,97759.33
2017-07-24T20:50:23.955Z,97760.48
2017-07-24T20:52:52.494Z,97756.56
2017-07-24T20:55:22.254Z,97756.02
2017-07-24T20:57:50.723Z,97748.95
2017-07-24T21:00:19.102Z,97752.57
2017-07-24T21:02:47.483Z,97749.73
2017-07-24T21:05:15.832Z,97749.88
2017-07-24T21:07:44.181Z,97747.69
2017-07-24T21:10:12.535Z,97752.87
2017-07-24T21:12:40.899Z,97749.88
2017-07-24T21:15:09.253Z,97756.92
2017-07-24T21:17:37.588Z,97758.67
2017-07-24T21:20:05.965Z,97767.01
2017-07-24T21:22:34.297Z,97763.17
2017-07-24T21:25:02.688Z,97759.43
2017-07-24T21:27:31.063Z,97758.24
2017-07-24T21:29:59.667Z,97766.80
2017-07-24T21:32:28.011Z,97765.23
2017-07-24T21:34:56.351Z,97770.08
2017-07-24T21:37:24.728Z,97767.98
2017-07-24T21:39:53.087Z,97775.13
2017-07-24T21:42:21.723Z,97775.02
2017-07-24T21:44:50.047Z,97773.45
2017-07-24T21:47:18.377Z,97771.34
2017-07-24T21:49:46.733Z,97779.12
2017-07-24T21:52:15.067Z,97787.62
2017-07-24T21:54:43.446Z,97785.11
2017-07-24T21:57:11.824Z,97781.23
2017-07-24T21:59:40.170Z,97794.22
2017-07-24T22:02:08.511Z,97800.77
2017-07-24T22:04:36.876Z,97792.52
2017-07-24T22:07:05.239Z,97802.48
2017-07-24T22:09:33.603Z,97804.67
2017-07-24T22:12:01.939Z,97798.73
2017-07-24T22:14:30.541Z,97800.45
2017-07-24T22:16:58.863Z,97796.03
2017-07-24T22:19:27.182Z,97798.02
2017-07-24T22:21:55.529Z,97797.48
2017-07-24T22:24:23.919Z,97791.88
2017-07-24T22:26:52.281Z,97795.22
2017-07-24T22:29:20.626Z,97791.37
2017-07-24T22:31:49.250Z,97784.98
2017-07-24T22:34:17.580Z,97798.64
2017-07-24T22:36:45.913Z,97795.41
2017-07-24T22:39:14.553Z,97794.19
2017-07-24T22:41:42.895Z,97790.48
2017-07-24T22:44:11.238Z,97793.46
2017-07-24T22:46:39.619Z,97799.75
2017-07-24T22:49:07.966Z,97798.11
2017-07-24T22:51:36.568Z,97795.78
2017-07-24T22:54:04.953Z,97800.38
2017-07-24T22:56:33.301Z,97800.91
2017-07-24T22:59:01.658Z,97805.98
2017-07-24T23:01:30.017Z,97799.73
2017-07-24T23:03:58.393Z,97805.98
2017-07-24T23:06:26.732Z,97795.16
2017-07-24T23:08:55.074Z,97794.75
2017-07-24T23:11:23.449Z,97796.41
2017-07-24T23:13:51.801Z,97799.77
2017-07-24T23:16:20.133Z,97798.94
2017-07-24T23:18:48.484Z,97797.76
2017-07-24T23:21:16.808Z,97799.25
2017-07-24T23:29:44.102Z,97798.55
2017-07-24T23:32:13.193Z,97788.98
2017-07-24T23:34:41.609Z,97792.13
2017-07-24T23:37:09.948Z,97802.49
2017-07-24T23:39:38.359Z,97801.32
2017-07-24T23:42:06.672Z,97796.92
2017-07-24T23:44:35.266Z,97792.05
2017-07-24T23:47:03.623Z,97797.85
2017-07-24T23:49:31.952Z,97794.42
2017-07-24T23:52:00.300Z,97799.14
2017-07-24T23:54:28.623Z,97799.73
2017-07-24T23:56:57.246Z,97803.78
2017-07-24T23:59:25.676Z,97801.84
